sensor_id;sensor_type;location;lat;lon;timestamp;temperature;humidity
74946;HTU21D;63509;45.250;38.102;2024-02-28T00:00:08;3.62;49.55
74946;HTU21D;63509;45.250;38.102;2024-02-28T00:02:36;3.59;49.56
74946;HTU21D;63509;45.250;38.102;2024-02-28T00:05:03;3.54;49.60
74946;HTU21D;63509;45.250;38.102;2024-02-28T00:07:30;3.48;49.66
74946;HTU21D;63509;45.250;38.102;2024-02-28T00:09:56;3.44;49.73
74946;HTU21D;63509;45.250;38.102;2024-02-28T00:12:24;3.45;49.77
74946;HTU21D;63509;45.250;38.102;2024-02-28T00:14:53;3.42;49.77
74946;HTU21D;63509;45.250;38.102;2024-02-28T00:17:19;3.40;49.82
74946;HTU21D;63509;45.250;38.102;2024-02-28T00:19:46;3.36;49.83
74946;HTU21D;63509;45.250;38.102;2024-02-28T00:22:12;3.32;49.86
74946;HTU21D;63509;45.250;38.102;2024-02-28T00:24:38;3.29;49.90
74946;HTU21D;63509;45.250;38.102;2024-02-28T00:27:04;3.27;49.93
74946;HTU21D;63509;45.250;38.102;2024-02-28T00:29:30;3.25;49.97
74946;HTU21D;63509;45.250;38.102;2024-02-28T00:31:56;3.21;49.98
74946;HTU21D;63509;45.250;38.102;2024-02-28T00:34:22;3.17;50.07
74946;HTU21D;63509;45.250;38.102;2024-02-28T00:36:48;3.14;50.10
74946;HTU21D;63509;45.250;38.102;2024-02-28T00:39:14;3.12;50.13
74946;HTU21D;63509;45.250;38.102;2024-02-28T00:41:40;3.11;50.16
74946;HTU21D;63509;45.250;38.102;2024-02-28T00:44:07;3.06;50.18
74946;HTU21D;63509;45.250;38.102;2024-02-28T00:46:36;3.04;50.18
74946;HTU21D;63509;45.250;38.102;2024-02-28T00:49:02;2.99;50.18
74946;HTU21D;63509;45.250;38.102;2024-02-28T00:51:28;2.96;50.24
74946;HTU21D;63509;45.250;38.102;2024-02-28T00:53:54;2.94;50.29
74946;HTU21D;63509;45.250;38.102;2024-02-28T00:56:20;2.94;50.34
74946;HTU21D;63509;45.250;38.102;2024-02-28T00:58:46;2.94;50.34
74946;HTU21D;63509;45.250;38.102;2024-02-28T01:01:12;2.94;50.38
74946;HTU21D;63509;45.250;38.102;2024-02-28T01:03:38;2.93;50.40
74946;HTU21D;63509;45.250;38.102;2024-02-28T01:06:04;2.91;50.41
74946;HTU21D;63509;45.250;38.102;2024-02-28T01:08:30;2.90;50.43
74946;HTU21D;63509;45.250;38.102;2024-02-28T01:10:56;2.91;50.44
74946;HTU21D;63509;45.250;38.102;2024-02-28T01:13:25;2.88;50.46
74946;HTU21D;63509;45.250;38.102;2024-02-28T01:15:51;2.87;50.52
74946;HTU21D;63509;45.250;38.102;2024-02-28T01:18:17;2.85;50.55
74946;HTU21D;63509;45.250;38.102;2024-02-28T01:20:44;2.83;50.56
74946;HTU21D;63509;45.250;38.102;2024-02-28T01:23:10;2.81;50.57
74946;HTU21D;63509;45.250;38.102;2024-02-28T01:25:36;2.79;50.62
74946;HTU21D;63509;45.250;38.102;2024-02-28T01:28:04;2.76;50.67
74946;HTU21D;63509;45.250;38.102;2024-02-28T01:30:30;2.72;50.70
74946;HTU21D;63509;45.250;38.102;2024-02-28T01:32:56;2.69;50.75
74946;HTU21D;63509;45.250;38.102;2024-02-28T01:35:22;2.65;50.79
74946;HTU21D;63509;45.250;38.102;2024-02-28T01:37:48;2.62;50.85
74946;HTU21D;63509;45.250;38.102;2024-02-28T01:40:14;2.61;50.88
74946;HTU21D;63509;45.250;38.102;2024-02-28T01:42:40;2.61;50.90
74946;HTU21D;63509;45.250;38.102;2024-02-28T01:45:07;2.60;50.92
74946;HTU21D;63509;45.250;38.102;2024-02-28T01:47:35;2.56;50.95
74946;HTU21D;63509;45.250;38.102;2024-02-28T01:50:02;2.56;50.98
74946;HTU21D;63509;45.250;38.102;2024-02-28T01:52:29;2.54;51.01
74946;HTU21D;63509;45.250;38.102;2024-02-28T01:54:56;2.54;51.04
74946;HTU21D;63509;45.250;38.102;2024-02-28T01:57:22;2.52;51.04
74946;HTU21D;63509;45.250;38.102;2024-02-28T01:59:48;2.51;51.08
74946;HTU21D;63509;45.250;38.102;2024-02-28T02:02:14;2.46;51.13
74946;HTU21D;63509;45.250;38.102;2024-02-28T02:04:40;2.43;51.16
74946;HTU21D;63509;45.250;38.102;2024-02-28T02:07:06;2.40;51.23
74946;HTU21D;63509;45.250;38.102;2024-02-28T02:09:34;2.37;51.25
74946;HTU21D;63509;45.250;38.102;2024-02-28T02:12:02;2.34;51.27
74946;HTU21D;63509;45.250;38.102;2024-02-28T02:14:31;2.31;51.33
74946;HTU21D;63509;45.250;38.102;2024-02-28T02:16:57;2.28;51.39
74946;HTU21D;63509;45.250;38.102;2024-02-28T02:19:23;2.27;51.43
74946;HTU21D;63509;45.250;38.102;2024-02-28T02:21:52;2.27;51.45
74946;HTU21D;63509;45.250;38.102;2024-02-28T02:24:19;2.28;51.46
74946;HTU21D;63509;45.250;38.102;2024-02-28T02:26:45;2.25;51.46
74946;HTU21D;63509;45.250;38.102;2024-02-28T02:29:13;2.24;51.52
74946;HTU21D;63509;45.250;38.102;2024-02-28T02:31:41;2.20;51.52
74946;HTU21D;63509;45.250;38.102;2024-02-28T02:34:07;2.20;51.56
74946;HTU21D;63509;45.250;38.102;2024-02-28T02:36:34;2.16;51.58
74946;HTU21D;63509;45.250;38.102;2024-02-28T02:39:00;2.12;51.63
74946;HTU21D;63509;45.250;38.102;2024-02-28T02:41:26;2.12;51.69
74946;HTU21D;63509;45.250;38.102;2024-02-28T02:43:52;2.10;51.70
74946;HTU21D;63509;45.250;38.102;2024-02-28T02:46:18;2.11;51.72
74946;HTU21D;63509;45.250;38.102;2024-02-28T02:48:44;2.10;51.75
74946;HTU21D;63509;45.250;38.102;2024-02-28T02:51:10;2.07;51.75
74946;HTU21D;63509;45.250;38.102;2024-02-28T02:53:36;2.06;51.79
74946;HTU21D;63509;45.250;38.102;2024-02-28T02:56:05;2.05;51.84
74946;HTU21D;63509;45.250;38.102;2024-02-28T02:58:31;2.01;51.87
74946;HTU21D;63509;45.250;38.102;2024-02-28T03:00:58;1.99;51.91
74946;HTU21D;63509;45.250;38.102;2024-02-28T03:03:24;1.98;51.93
74946;HTU21D;63509;45.250;38.102;2024-02-28T03:05:50;1.94;51.95
74946;HTU21D;63509;45.250;38.102;2024-02-28T03:08:19;1.93;52.00
74946;HTU21D;63509;45.250;38.102;2024-02-28T03:10:45;1.92;52.02
74946;HTU21D;63509;45.250;38.102;2024-02-28T03:13:11;1.92;52.04
74946;HTU21D;63509;45.250;38.102;2024-02-28T03:15:38;1.91;52.05
74946;HTU21D;63509;45.250;38.102;2024-02-28T03:18:04;1.87;52.11
74946;HTU21D;63509;45.250;38.102;2024-02-28T03:20:30;1.84;52.17
74946;HTU21D;63509;45.250;38.102;2024-02-28T03:22:56;1.82;52.20
74946;HTU21D;63509;45.250;38.102;2024-02-28T03:25:22;1.80;52.26
74946;HTU21D;63509;45.250;38.102;2024-02-28T03:27:49;1.80;52.25
74946;HTU21D;63509;45.250;38.102;2024-02-28T03:30:23;1.80;52.27
74946;HTU21D;63509;45.250;38.102;2024-02-28T03:32:49;1.77;52.29
74946;HTU21D;63509;45.250;38.102;2024-02-28T03:35:15;1.75;52.34
74946;HTU21D;63509;45.250;38.102;2024-02-28T03:37:41;1.73;52.35
74946;HTU21D;63509;45.250;38.102;2024-02-28T03:40:07;1.71;52.36
74946;HTU21D;63509;45.250;38.102;2024-02-28T03:42:34;1.68;52.38
74946;HTU21D;63509;45.250;38.102;2024-02-28T03:45:00;1.67;52.46
74946;HTU21D;63509;45.250;38.102;2024-02-28T03:47:26;1.65;52.48
74946;HTU21D;63509;45.250;38.102;2024-02-28T03:49:52;1.64;52.52
74946;HTU21D;63509;45.250;38.102;2024-02-28T03:52:18;1.63;52.49
74946;HTU21D;63509;45.250;38.102;2024-02-28T03:54:44;1.57;52.55
74946;HTU21D;63509;45.250;38.102;2024-02-28T03:57:13;1.56;52.62
74946;HTU21D;63509;45.250;38.102;2024-02-28T03:59:43;1.55;52.64
74946;HTU21D;63509;45.250;38.102;2024-02-28T04:02:09;1.53;52.66
74946;HTU21D;63509;45.250;38.102;2024-02-28T04:04:35;1.53;52.69
74946;HTU21D;63509;45.250;38.102;2024-02-28T04:07:01;1.51;52.70
74946;HTU21D;63509;45.250;38.102;2024-02-28T04:09:27;1.50;52.73
74946;HTU21D;63509;45.250;38.102;2024-02-28T04:11:56;1.50;52.76
74946;HTU21D;63509;45.250;38.102;2024-02-28T04:14:22;1.48;52.78
74946;HTU21D;63509;45.250;38.102;2024-02-28T04:16:49;1.45;52.86
74946;HTU21D;63509;45.250;38.102;2024-02-28T04:19:16;1.43;52.89
74946;HTU21D;63509;45.250;38.102;2024-02-28T04:21:43;1.43;52.91
74946;HTU21D;63509;45.250;38.102;2024-02-28T04:24:09;1.42;52.96
74946;HTU21D;63509;45.250;38.102;2024-02-28T04:26:36;1.43;52.94
74946;HTU21D;63509;45.250;38.102;2024-02-28T04:29:02;1.40;52.94
74946;HTU21D;63509;45.250;38.102;2024-02-28T04:31:33;1.41;52.98
74946;HTU21D;63509;45.250;38.102;2024-02-28T04:33:59;1.39;53.01
74946;HTU21D;63509;45.250;38.102;2024-02-28T04:36:25;1.37;53.04
74946;HTU21D;63509;45.250;38.102;2024-02-28T04:38:51;1.37;53.08
74946;HTU21D;63509;45.250;38.102;2024-02-28T04:41:23;1.47;53.25
74946;HTU21D;63509;45.250;38.102;2024-02-28T04:43:50;1.53;53.20
74946;HTU21D;63509;45.250;38.102;2024-02-28T04:46:17;1.57;53.17
74946;HTU21D;63509;45.250;38.102;2024-02-28T04:48:43;1.60;53.14
74946;HTU21D;63509;45.250;38.102;2024-02-28T04:51:11;1.66;53.15
74946;HTU21D;63509;45.250;38.102;2024-02-28T04:53:41;1.70;53.14
74946;HTU21D;63509;45.250;38.102;2024-02-28T04:56:07;1.76;53.14
74946;HTU21D;63509;45.250;38.102;2024-02-28T04:58:37;1.81;53.14
74946;HTU21D;63509;45.250;38.102;2024-02-28T05:01:16;1.86;53.16
74946;HTU21D;63509;45.250;38.102;2024-02-28T05:03:46;1.92;53.15
74946;HTU21D;63509;45.250;38.102;2024-02-28T05:06:12;1.94;53.17
74946;HTU21D;63509;45.250;38.102;2024-02-28T05:08:42;1.99;53.23
74946;HTU21D;63509;45.250;38.102;2024-02-28T05:11:11;2.05;53.18
74946;HTU21D;63509;45.250;38.102;2024-02-28T05:13:37;2.08;53.18
74946;HTU21D;63509;45.250;38.102;2024-02-28T05:16:03;2.11;53.23
74946;HTU21D;63509;45.250;38.102;2024-02-28T05:18:30;2.15;53.27
74946;HTU21D;63509;45.250;38.102;2024-02-28T05:20:56;2.23;53.30
74946;HTU21D;63509;45.250;38.102;2024-02-28T05:23:23;2.30;53.31
74946;HTU21D;63509;45.250;38.102;2024-02-28T05:25:49;2.37;53.31
74946;HTU21D;63509;45.250;38.102;2024-02-28T05:28:15;2.43;53.32
74946;HTU21D;63509;45.250;38.102;2024-02-28T05:30:41;2.49;53.34
74946;HTU21D;63509;45.250;38.102;2024-02-28T05:33:08;2.55;53.35
74946;HTU21D;63509;45.250;38.102;2024-02-28T05:35:35;2.60;53.38
74946;HTU21D;63509;45.250;38.102;2024-02-28T05:38:05;2.67;53.39
74946;HTU21D;63509;45.250;38.102;2024-02-28T05:40:32;2.72;53.42
74946;HTU21D;63509;45.250;38.102;2024-02-28T05:42:58;2.79;53.45
74946;HTU21D;63509;45.250;38.102;2024-02-28T05:45:24;2.85;53.49
74946;HTU21D;63509;45.250;38.102;2024-02-28T05:47:50;2.93;53.51
74946;HTU21D;63509;45.250;38.102;2024-02-28T05:50:16;3.01;53.53
74946;HTU21D;63509;45.250;38.102;2024-02-28T05:52:43;3.10;53.59
74946;HTU21D;63509;45.250;38.102;2024-02-28T05:55:11;3.15;53.59
74946;HTU21D;63509;45.250;38.102;2024-02-28T05:57:38;3.23;53.68
74946;HTU21D;63509;45.250;38.102;2024-02-28T06:00:05;3.31;53.71
74946;HTU21D;63509;45.250;38.102;2024-02-28T06:02:37;3.42;53.71
74946;HTU21D;63509;45.250;38.102;2024-02-28T06:05:04;3.52;53.68
74946;HTU21D;63509;45.250;38.102;2024-02-28T06:07:30;3.60;53.69
74946;HTU21D;63509;45.250;38.102;2024-02-28T06:09:56;3.67;53.66
74946;HTU21D;63509;45.250;38.102;2024-02-28T06:12:23;3.76;53.67
74946;HTU21D;63509;45.250;38.102;2024-02-28T06:14:50;3.85;53.67
74946;HTU21D;63509;45.250;38.102;2024-02-28T06:17:16;3.95;53.68
74946;HTU21D;63509;45.250;38.102;2024-02-28T06:19:42;4.07;53.65
74946;HTU21D;63509;45.250;38.102;2024-02-28T06:22:08;4.17;53.63
74946;HTU21D;63509;45.250;38.102;2024-02-28T06:24:35;4.28;53.62
74946;HTU21D;63509;45.250;38.102;2024-02-28T06:27:01;4.37;53.62
74946;HTU21D;63509;45.250;38.102;2024-02-28T06:29:28;4.46;53.58
74946;HTU21D;63509;45.250;38.102;2024-02-28T06:31:55;4.53;53.62
74946;HTU21D;63509;45.250;38.102;2024-02-28T06:34:21;4.64;53.64
74946;HTU21D;63509;45.250;38.102;2024-02-28T06:36:48;4.78;53.61
74946;HTU21D;63509;45.250;38.102;2024-02-28T06:39:15;4.90;53.56
74946;HTU21D;63509;45.250;38.102;2024-02-28T06:41:42;4.95;53.42
74946;HTU21D;63509;45.250;38.102;2024-02-28T06:44:08;5.01;53.43
74946;HTU21D;63509;45.250;38.102;2024-02-28T06:46:35;5.06;53.43
74946;HTU21D;63509;45.250;38.102;2024-02-28T06:49:01;5.09;53.39
74946;HTU21D;63509;45.250;38.102;2024-02-28T06:51:28;5.20;53.43
74946;HTU21D;63509;45.250;38.102;2024-02-28T06:53:54;5.28;53.35
74946;HTU21D;63509;45.250;38.102;2024-02-28T06:56:20;5.36;53.34
74946;HTU21D;63509;45.250;38.102;2024-02-28T06:58:46;5.46;53.30
74946;HTU21D;63509;45.250;38.102;2024-02-28T07:01:13;5.57;53.27
74946;HTU21D;63509;45.250;38.102;2024-02-28T07:03:39;5.69;53.23
74946;HTU21D;63509;45.250;38.102;2024-02-28T07:06:09;5.86;53.20
74946;HTU21D;63509;45.250;38.102;2024-02-28T07:08:35;5.98;53.10
74946;HTU21D;63509;45.250;38.102;2024-02-28T07:11:01;6.17;53.05
74946;HTU21D;63509;45.250;38.102;2024-02-28T07:13:28;6.31;52.91
74946;HTU21D;63509;45.250;38.102;2024-02-28T07:15:57;6.44;52.77
74946;HTU21D;63509;45.250;38.102;2024-02-28T07:18:26;6.56;52.70
74946;HTU21D;63509;45.250;38.102;2024-02-28T07:20:54;6.69;52.62
74946;HTU21D;63509;45.250;38.102;2024-02-28T07:23:20;6.82;52.58
74946;HTU21D;63509;45.250;38.102;2024-02-28T07:25:47;7.00;52.56
74946;HTU21D;63509;45.250;38.102;2024-02-28T07:28:13;7.17;52.43
74946;HTU21D;63509;45.250;38.102;2024-02-28T07:30:39;7.33;52.30
74946;HTU21D;63509;45.250;38.102;2024-02-28T07:33:06;7.47;52.18
74946;HTU21D;63509;45.250;38.102;2024-02-28T07:35:32;7.61;52.22
74946;HTU21D;63509;45.250;38.102;2024-02-28T07:38:01;7.81;52.12
74946;HTU21D;63509;45.250;38.102;2024-02-28T07:40:28;7.96;51.98
74946;HTU21D;63509;45.250;38.102;2024-02-28T07:42:54;8.11;51.88
74946;HTU21D;63509;45.250;38.102;2024-02-28T07:45:20;8.21;51.70
74946;HTU21D;63509;45.250;38.102;2024-02-28T07:47:47;8.31;51.55
74946;HTU21D;63509;45.250;38.102;2024-02-28T07:50:13;8.42;51.52
74946;HTU21D;63509;45.250;38.102;2024-02-28T07:52:39;8.53;51.42
74946;HTU21D;63509;45.250;38.102;2024-02-28T07:55:06;8.64;51.27
74946;HTU21D;63509;45.250;38.102;2024-02-28T07:57:32;8.73;51.21
74946;HTU21D;63509;45.250;38.102;2024-02-28T07:59:59;8.83;51.03
74946;HTU21D;63509;45.250;38.102;2024-02-28T08:02:26;8.92;51.01
74946;HTU21D;63509;45.250;38.102;2024-02-28T08:04:52;9.02;50.82
74946;HTU21D;63509;45.250;38.102;2024-02-28T08:07:19;9.11;50.76
74946;HTU21D;63509;45.250;38.102;2024-02-28T08:09:45;9.21;50.69
74946;HTU21D;63509;45.250;38.102;2024-02-28T08:12:11;9.34;50.68
74946;HTU21D;63509;45.250;38.102;2024-02-28T08:14:37;9.45;50.60
74946;HTU21D;63509;45.250;38.102;2024-02-28T08:17:04;9.60;50.50
74946;HTU21D;63509;45.250;38.102;2024-02-28T08:19:30;9.71;50.30
74946;HTU21D;63509;45.250;38.102;2024-02-28T08:21:56;9.80;50.19
74946;HTU21D;63509;45.250;38.102;2024-02-28T08:24:22;9.90;50.11
74946;HTU21D;63509;45.250;38.102;2024-02-28T08:26:48;9.94;49.95
74946;HTU21D;63509;45.250;38.102;2024-02-28T08:29:15;9.97;49.83
74946;HTU21D;63509;45.250;38.102;2024-02-28T08:31:43;10.04;49.78
74946;HTU21D;63509;45.250;38.102;2024-02-28T08:34:09;10.06;49.77
74946;HTU21D;63509;45.250;38.102;2024-02-28T08:36:39;10.19;49.77
74946;HTU21D;63509;45.250;38.102;2024-02-28T08:39:08;10.30;49.75
74946;HTU21D;63509;45.250;38.102;2024-02-28T08:41:36;10.43;49.55
74946;HTU21D;63509;45.250;38.102;2024-02-28T08:44:03;10.53;49.37
74946;HTU21D;63509;45.250;38.102;2024-02-28T08:46:30;10.58;49.20
74946;HTU21D;63509;45.250;38.102;2024-02-28T08:49:00;10.67;49.26
74946;HTU21D;63509;45.250;38.102;2024-02-28T08:51:27;10.74;49.07
74946;HTU21D;63509;45.250;38.102;2024-02-28T08:53:53;10.78;49.08
74946;HTU21D;63509;45.250;38.102;2024-02-28T08:56:22;10.87;49.00
74946;HTU21D;63509;45.250;38.102;2024-02-28T08:58:49;10.90;48.60
74946;HTU21D;63509;45.250;38.102;2024-02-28T09:01:15;10.85;48.59
74946;HTU21D;63509;45.250;38.102;2024-02-28T09:03:42;10.88;48.47
74946;HTU21D;63509;45.250;38.102;2024-02-28T09:06:12;10.92;48.44
74946;HTU21D;63509;45.250;38.102;2024-02-28T09:08:39;10.94;48.44
74946;HTU21D;63509;45.250;38.102;2024-02-28T09:11:06;11.02;48.37
74946;HTU21D;63509;45.250;38.102;2024-02-28T09:13:33;11.12;48.24
74946;HTU21D;63509;45.250;38.102;2024-02-28T09:16:02;11.16;47.78
74946;HTU21D;63509;45.250;38.102;2024-02-28T09:18:29;11.12;47.73
74946;HTU21D;63509;45.250;38.102;2024-02-28T09:20:56;11.14;47.73
74946;HTU21D;63509;45.250;38.102;2024-02-28T09:23:25;11.20;47.83
74946;HTU21D;63509;45.250;38.102;2024-02-28T09:25:52;11.30;47.73
74946;HTU21D;63509;45.250;38.102;2024-02-28T09:28:20;11.32;47.56
74946;HTU21D;63509;45.250;38.102;2024-02-28T09:30:47;11.37;47.66
74946;HTU21D;63509;45.250;38.102;2024-02-28T09:33:16;11.51;47.67
74946;HTU21D;63509;45.250;38.102;2024-02-28T09:35:45;11.62;47.47
74946;HTU21D;63509;45.250;38.102;2024-02-28T09:38:11;11.67;47.36
74946;HTU21D;63509;45.250;38.102;2024-02-28T09:40:38;11.69;47.29
74946;HTU21D;63509;45.250;38.102;2024-02-28T09:43:04;11.70;47.15
74946;HTU21D;63509;45.250;38.102;2024-02-28T09:45:31;11.74;47.15
74946;HTU21D;63509;45.250;38.102;2024-02-28T09:48:01;11.78;47.10
74946;HTU21D;63509;45.250;38.102;2024-02-28T09:50:30;11.85;47.05
74946;HTU21D;63509;45.250;38.102;2024-02-28T09:53:09;11.93;47.12
74946;HTU21D;63509;45.250;38.102;2024-02-28T09:55:40;12.02;46.73
74946;HTU21D;63509;45.250;38.102;2024-02-28T09:58:08;12.04;46.58
74946;HTU21D;63509;45.250;38.102;2024-02-28T10:00:35;12.03;46.52
74946;HTU21D;63509;45.250;38.102;2024-02-28T10:03:05;12.02;46.54
74946;HTU21D;63509;45.250;38.102;2024-02-28T10:05:33;12.07;46.47
74946;HTU21D;63509;45.250;38.102;2024-02-28T10:08:01;12.11;46.29
74946;HTU21D;63509;45.250;38.102;2024-02-28T10:10:28;12.13;46.27
74946;HTU21D;63509;45.250;38.102;2024-02-28T10:12:58;12.17;46.21
74946;HTU21D;63509;45.250;38.102;2024-02-28T10:15:28;12.19;46.14
74946;HTU21D;63509;45.250;38.102;2024-02-28T10:17:56;12.25;45.99
74946;HTU21D;63509;45.250;38.102;2024-02-28T10:20:27;12.31;45.88
74946;HTU21D;63509;45.250;38.102;2024-02-28T10:22:54;12.38;45.77
74946;HTU21D;63509;45.250;38.102;2024-02-28T10:25:23;12.46;45.57
74946;HTU21D;63509;45.250;38.102;2024-02-28T10:27:50;12.44;45.38
74946;HTU21D;63509;45.250;38.102;2024-02-28T10:30:16;12.42;45.56
74946;HTU21D;63509;45.250;38.102;2024-02-28T10:32:50;12.45;45.51
74946;HTU21D;63509;45.250;38.102;2024-02-28T10:35:20;12.44;45.28
74946;HTU21D;63509;45.250;38.102;2024-02-28T10:37:47;12.44;44.89
74946;HTU21D;63509;45.250;38.102;2024-02-28T10:40:20;12.42;44.83
74946;HTU21D;63509;45.250;38.102;2024-02-28T10:42:49;12.40;45.00
74946;HTU21D;63509;45.250;38.102;2024-02-28T10:45:17;12.37;44.95
74946;HTU21D;63509;45.250;38.102;2024-02-28T10:47:51;12.33;44.94
74946;HTU21D;63509;45.250;38.102;2024-02-28T10:50:27;12.30;45.06
74946;HTU21D;63509;45.250;38.102;2024-02-28T10:53:00;12.33;45.06
74946;HTU21D;63509;45.250;38.102;2024-02-28T10:55:32;12.37;44.90
74946;HTU21D;63509;45.250;38.102;2024-02-28T10:58:06;12.38;44.83
74946;HTU21D;63509;45.250;38.102;2024-02-28T11:00:38;12.36;44.80
74946;HTU21D;63509;45.250;38.102;2024-02-28T11:03:11;12.33;44.70
74946;HTU21D;63509;45.250;38.102;2024-02-28T11:05:41;12.29;44.67
74946;HTU21D;63509;45.250;38.102;2024-02-28T11:08:09;12.26;44.63
74946;HTU21D;63509;45.250;38.102;2024-02-28T11:10:41;12.21;44.64
74946;HTU21D;63509;45.250;38.102;2024-02-28T11:13:10;12.15;44.25
74946;HTU21D;63509;45.250;38.102;2024-02-28T11:15:48;12.07;44.16
74946;HTU21D;63509;45.250;38.102;2024-02-28T11:18:15;12.01;44.03
74946;HTU21D;63509;45.250;38.102;2024-02-28T11:20:42;11.98;44.13
74946;HTU21D;63509;45.250;38.102;2024-02-28T11:23:36;12.00;44.38
74946;HTU21D;63509;45.250;38.102;2024-02-28T11:26:03;12.03;44.21
74946;HTU21D;63509;45.250;38.102;2024-02-28T11:28:33;12.00;44.17
74946;HTU21D;63509;45.250;38.102;2024-02-28T11:31:18;11.96;44.16
74946;HTU21D;63509;45.250;38.102;2024-02-28T11:33:45;11.97;44.22
74946;HTU21D;63509;45.250;38.102;2024-02-28T11:36:15;11.99;44.20
74946;HTU21D;63509;45.250;38.102;2024-02-28T11:38:41;12.02;44.03
74946;HTU21D;63509;45.250;38.102;2024-02-28T11:41:11;12.02;43.89
74946;HTU21D;63509;45.250;38.102;2024-02-28T11:43:44;11.97;43.84
74946;HTU21D;63509;45.250;38.102;2024-02-28T11:46:14;11.91;43.80
74946;HTU21D;63509;45.250;38.102;2024-02-28T11:48:40;11.88;43.71
74946;HTU21D;63509;45.250;38.102;2024-02-28T11:51:07;11.85;43.85
74946;HTU21D;63509;45.250;38.102;2024-02-28T11:53:34;11.84;43.89
74946;HTU21D;63509;45.250;38.102;2024-02-28T11:56:00;11.83;43.74
74946;HTU21D;63509;45.250;38.102;2024-02-28T11:58:30;11.77;43.87
74946;HTU21D;63509;45.250;38.102;2024-02-28T12:00:56;11.75;43.91
74946;HTU21D;63509;45.250;38.102;2024-02-28T12:03:23;11.73;43.86
74946;HTU21D;63509;45.250;38.102;2024-02-28T12:05:51;11.73;43.93
74946;HTU21D;63509;45.250;38.102;2024-02-28T12:08:18;11.72;43.92
74946;HTU21D;63509;45.250;38.102;2024-02-28T12:10:46;11.70;43.88
74946;HTU21D;63509;45.250;38.102;2024-02-28T12:13:19;11.68;43.90
74946;HTU21D;63509;45.250;38.102;2024-02-28T12:15:46;11.63;43.94
74946;HTU21D;63509;45.250;38.102;2024-02-28T12:18:17;11.60;44.03
74946;HTU21D;63509;45.250;38.102;2024-02-28T12:20:46;11.58;44.07
74946;HTU21D;63509;45.250;38.102;2024-02-28T12:23:12;11.58;44.09
74946;HTU21D;63509;45.250;38.102;2024-02-28T12:25:38;11.58;44.13
74946;HTU21D;63509;45.250;38.102;2024-02-28T12:28:07;11.60;44.18
74946;HTU21D;63509;45.250;38.102;2024-02-28T12:30:42;11.64;44.16
74946;HTU21D;63509;45.250;38.102;2024-02-28T12:33:10;11.62;43.96
74946;HTU21D;63509;45.250;38.102;2024-02-28T12:35:37;11.58;43.92
74946;HTU21D;63509;45.250;38.102;2024-02-28T12:38:04;11.56;44.06
74946;HTU21D;63509;45.250;38.102;2024-02-28T12:40:35;11.55;44.11
74946;HTU21D;63509;45.250;38.102;2024-02-28T13:01:27;11.52;44.42
74946;HTU21D;63509;45.250;38.102;2024-02-28T13:03:55;11.53;44.31
74946;HTU21D;63509;45.250;38.102;2024-02-28T13:06:22;11.48;44.09
74946;HTU21D;63509;45.250;38.102;2024-02-28T13:08:48;11.44;44.08
74946;HTU21D;63509;45.250;38.102;2024-02-28T13:11:19;11.40;44.13
74946;HTU21D;63509;45.250;38.102;2024-02-28T13:13:48;11.39;44.08
74946;HTU21D;63509;45.250;38.102;2024-02-28T13:16:18;11.36;44.21
74946;HTU21D;63509;45.250;38.102;2024-02-28T13:18:45;11.37;44.19
74946;HTU21D;63509;45.250;38.102;2024-02-28T13:21:12;11.39;44.25
74946;HTU21D;63509;45.250;38.102;2024-02-28T13:23:39;11.36;44.21
74946;HTU21D;63509;45.250;38.102;2024-02-28T13:26:06;11.37;44.15
74946;HTU21D;63509;45.250;38.102;2024-02-28T13:28:35;11.34;44.22
74946;HTU21D;63509;45.250;38.102;2024-02-28T13:31:03;11.33;44.19
74946;HTU21D;63509;45.250;38.102;2024-02-28T13:33:30;11.32;44.25
74946;HTU21D;63509;45.250;38.102;2024-02-28T13:36:00;11.31;44.18
74946;HTU21D;63509;45.250;38.102;2024-02-28T13:38:28;11.30;44.14
74946;HTU21D;63509;45.250;38.102;2024-02-28T13:40:58;11.28;44.18
74946;HTU21D;63509;45.250;38.102;2024-02-28T13:43:27;11.23;44.09
74946;HTU21D;63509;45.250;38.102;2024-02-28T13:45:55;11.22;44.06
74946;HTU21D;63509;45.250;38.102;2024-02-28T13:48:28;11.17;44.12
74946;HTU21D;63509;45.250;38.102;2024-02-28T13:50:57;11.13;44.14
74946;HTU21D;63509;45.250;38.102;2024-02-28T13:53:43;11.09;44.16
74946;HTU21D;63509;45.250;38.102;2024-02-28T13:56:21;11.03;44.18
74946;HTU21D;63509;45.250;38.102;2024-02-28T13:58:52;11.00;44.25
74946;HTU21D;63509;45.250;38.102;2024-02-28T14:01:21;10.99;44.33
74946;HTU21D;63509;45.250;38.102;2024-02-28T14:03:51;10.99;44.23
74946;HTU21D;63509;45.250;38.102;2024-02-28T14:06:25;10.96;44.26
74946;HTU21D;63509;45.250;38.102;2024-02-28T14:08:58;10.92;44.29
74946;HTU21D;63509;45.250;38.102;2024-02-28T14:11:42;10.88;44.35
74946;HTU21D;63509;45.250;38.102;2024-02-28T14:14:17;10.86;44.41
74946;HTU21D;63509;45.250;38.102;2024-02-28T14:17:03;10.85;44.57
74946;HTU21D;63509;45.250;38.102;2024-02-28T14:19:31;10.83;44.54
74946;HTU21D;63509;45.250;38.102;2024-02-28T14:21:57;10.82;44.55
74946;HTU21D;63509;45.250;38.102;2024-02-28T14:24:24;10.80;44.57
74946;HTU21D;63509;45.250;38.102;2024-02-28T14:26:51;10.79;44.58
74946;HTU21D;63509;45.250;38.102;2024-02-28T14:29:21;10.75;44.64
74946;HTU21D;63509;45.250;38.102;2024-02-28T14:31:58;10.73;44.66
74946;HTU21D;63509;45.250;38.102;2024-02-28T14:34:27;10.69;44.74
74946;HTU21D;63509;45.250;38.102;2024-02-28T14:36:57;10.68;44.76
74946;HTU21D;63509;45.250;38.102;2024-02-28T14:39:24;10.66;44.78
74946;HTU21D;63509;45.250;38.102;2024-02-28T14:42:12;10.63;44.86
74946;HTU21D;63509;45.250;38.102;2024-02-28T14:44:40;10.59;44.86
74946;HTU21D;63509;45.250;38.102;2024-02-28T14:47:11;10.57;44.93
74946;HTU21D;63509;45.250;38.102;2024-02-28T14:49:38;10.55;44.96
74946;HTU21D;63509;45.250;38.102;2024-02-28T14:52:24;10.52;45.02
74946;HTU21D;63509;45.250;38.102;2024-02-28T14:54:51;10.49;45.06
74946;HTU21D;63509;45.250;38.102;2024-02-28T14:57:17;10.46;45.09
74946;HTU21D;63509;45.250;38.102;2024-02-28T15:00:13;10.41;45.18
74946;HTU21D;63509;45.250;38.102;2024-02-28T15:02:43;10.37;45.23
74946;HTU21D;63509;45.250;38.102;2024-02-28T15:05:11;10.34;45.27
74946;HTU21D;63509;45.250;38.102;2024-02-28T15:10:28;10.24;45.40
74946;HTU21D;63509;45.250;38.102;2024-02-28T15:12:57;10.18;45.45
74946;HTU21D;63509;45.250;38.102;2024-02-28T15:15:23;10.11;45.50
74946;HTU21D;63509;45.250;38.102;2024-02-28T15:17:50;10.06;45.51
74946;HTU21D;63509;45.250;38.102;2024-02-28T15:20:16;10.00;45.56
74946;HTU21D;63509;45.250;38.102;2024-02-28T15:22:43;9.92;45.66
74946;HTU21D;63509;45.250;38.102;2024-02-28T15:25:12;9.88;45.71
74946;HTU21D;63509;45.250;38.102;2024-02-28T15:27:58;9.80;45.80
74946;HTU21D;63509;45.250;38.102;2024-02-28T15:30:26;9.74;45.90
74946;HTU21D;63509;45.250;38.102;2024-02-28T15:32:53;9.68;45.89
74946;HTU21D;63509;45.250;38.102;2024-02-28T15:35:21;9.62;46.02